createdAt,value
2022-09-13T00:00:54.663Z,64.41
2022-09-13T00:06:13.799Z,64.32
2022-09-13T00:11:24.125Z,64.47
2022-09-13T00:16:32.397Z,64.72
2022-09-13T00:21:43.056Z,64.83
2022-09-13T00:26:50.940Z,64.92
2022-09-13T00:32:06.266Z,64.88
2022-09-13T00:37:16.369Z,65.15
2022-09-13T00:42:34.440Z,65.06
2022-09-13T00:47:45.919Z,64.95
2022-09-13T00:52:59.923Z,65.32
2022-09-13T00:58:18.069Z,65.31
2022-09-13T01:03:36.965Z,65.24
2022-09-13T01:08:55.127Z,65.38
2022-09-13T01:14:12.874Z,65.47
2022-09-13T01:19:23.672Z,65.49
2022-09-13T01:25:08.316Z,65.65
2022-09-13T01:30:21.346Z,65.78
2022-09-13T01:35:43.833Z,65.89
2022-09-13T01:41:15.057Z,65.72
2022-09-13T01:46:51.015Z,65.91
2022-09-13T01:52:17.003Z,66.26
2022-09-13T01:57:34.933Z,66.09
2022-09-13T02:02:47.546Z,66.09
2022-09-13T02:08:03.367Z,66.28
2022-09-13T02:13:15.915Z,66.12
2022-09-13T02:18:32.107Z,66.24
2022-09-13T02:23:44.443Z,66.35
2022-09-13T02:29:07.011Z,66.65
2022-09-13T02:34:21.186Z,67.10
2022-09-13T02:39:45.468Z,67.06
2022-09-13T02:45:07.458Z,66.93
2022-09-13T02:50:41.315Z,67.13
2022-09-13T02:56:03.780Z,67.51
2022-09-13T03:01:09.913Z,67.68
2022-09-13T03:06:31.538Z,67.90
2022-09-13T03:11:54.780Z,68.19
2022-09-13T03:17:41.268Z,68.10
2022-09-13T03:23:23.566Z,68.19
2022-09-13T03:28:55.039Z,68.31
2022-09-13T03:34:15.454Z,68.51
2022-09-13T03:39:31.531Z,68.48
2022-09-13T03:44:50.792Z,68.43
2022-09-13T03:50:09.043Z,68.45
2022-09-13T03:55:21.743Z,68.64
2022-09-13T04:00:32.793Z,68.56
2022-09-13T04:05:45.339Z,68.70
2022-09-13T04:10:53.468Z,68.71
2022-09-13T04:16:06.306Z,68.80
2022-09-13T04:21:13.904Z,68.81
2022-09-13T04:26:21.835Z,68.95
2022-09-13T04:31:50.199Z,69.31
2022-09-13T04:37:01.108Z,69.29
2022-09-13T04:42:12.617Z,69.28
2022-09-13T04:47:23.400Z,69.37
2022-09-13T04:52:40.272Z,69.18
2022-09-13T04:57:56.727Z,69.01
2022-09-13T05:03:24.303Z,68.91
2022-09-13T05:08:43.528Z,69.15
2022-09-13T05:14:11.623Z,69.16
2022-09-13T05:19:30.480Z,69.52
2022-09-13T05:24:58.532Z,69.41
2022-09-13T05:30:26.017Z,69.24
2022-09-13T05:35:53.869Z,69.37
2022-09-13T05:41:21.369Z,69.05
2022-09-13T05:46:41.763Z,69.07
2022-09-13T05:52:26.640Z,69.31
2022-09-13T05:57:50.370Z,68.95
2022-09-13T06:03:18.032Z,68.86
2022-09-13T06:08:46.106Z,68.85
2022-09-13T06:14:37.570Z,68.89
2022-09-13T06:20:06.710Z,68.81
2022-09-13T06:25:28.530Z,68.68
2022-09-13T06:31:02.122Z,68.75
2022-09-13T06:36:20.869Z,68.73
2022-09-13T06:41:41.451Z,68.84
2022-09-13T06:47:09.167Z,68.81
2022-09-13T06:52:28.300Z,69.21
2022-09-13T06:57:43.239Z,69.04
2022-09-13T07:03:11.101Z,69.16
2022-09-13T07:08:38.249Z,68.94
2022-09-13T07:14:07.506Z,68.96
2022-09-13T07:19:35.012Z,68.82
2022-09-13T07:25:02.503Z,68.74
2022-09-13T07:30:29.877Z,68.70
2022-09-13T07:35:37.555Z,68.40
2022-09-13T07:41:09.318Z,68.47
2022-09-13T07:46:58.936Z,68.29
2022-09-13T07:52:50.569Z,68.18
2022-09-13T07:58:12.267Z,68.37
2022-09-13T08:03:32.877Z,68.15
2022-09-13T08:09:00.657Z,67.84
2022-09-13T08:14:13.130Z,67.48
2022-09-13T08:19:40.474Z,66.79
2022-09-13T08:24:53.392Z,66.63
2022-09-13T08:30:00.685Z,65.98
2022-09-13T08:35:19.533Z,65.64
2022-09-13T08:40:30.212Z,65.93
2022-09-13T08:45:57.920Z,66.24
2022-09-13T08:51:09.474Z,66.43
2022-09-13T08:56:38.005Z,66.44
2022-09-13T09:01:57.679Z,66.60
2022-09-13T09:07:16.595Z,66.02
2022-09-13T09:12:47.533Z,65.63
2022-09-13T09:18:01.937Z,65.69
2022-09-13T09:23:21.118Z,65.38
2022-09-13T09:28:48.014Z,65.42
2022-09-13T09:34:23.811Z,65.24
2022-09-13T09:39:39.333Z,65.31
2022-09-13T09:45:02.067Z,65.51
2022-09-13T09:50:14.897Z,65.48
2022-09-13T09:55:30.229Z,65.40
2022-09-13T10:00:53.877Z,65.42
2022-09-13T10:06:13.379Z,65.37
2022-09-13T10:11:47.799Z,65.44
2022-09-13T10:17:20.475Z,65.57
2022-09-13T10:23:08.029Z,65.79
2022-09-13T10:28:31.541Z,65.86
2022-09-13T10:34:27.049Z,65.98
2022-09-13T10:40:27.622Z,66.13
2022-09-13T10:45:55.667Z,66.35
2022-09-13T10:51:36.963Z,66.23
2022-09-13T10:56:47.753Z,65.88
2022-09-13T11:02:30.862Z,65.83
2022-09-13T11:08:12.989Z,65.76
2022-09-13T11:13:54.283Z,65.59
2022-09-13T11:19:46.743Z,65.24
2022-09-13T11:25:11.038Z,64.65
2022-09-13T11:30:23.643Z,64.85
2022-09-13T11:35:44.826Z,64.27
2022-09-13T11:41:10.515Z,64.38
2022-09-13T11:46:36.136Z,64.18
2022-09-13T11:52:11.098Z,64.06
2022-09-13T11:57:30.636Z,63.95
2022-09-13T12:02:53.560Z,64.05
2022-09-13T12:08:06.468Z,64.13
2022-09-13T12:13:18.733Z,63.89
2022-09-13T12:18:31.127Z,63.79
2022-09-13T12:23:54.513Z,63.94
2022-09-13T12:29:09.724Z,63.86
2022-09-13T12:34:32.765Z,63.85
2022-09-13T12:40:12.004Z,64.10
2022-09-13T12:46:09.870Z,63.91
2022-09-13T12:52:17.999Z,64.18
2022-09-13T12:57:41.049Z,64.22
2022-09-13T13:03:11.895Z,64.08
2022-09-13T13:08:40.722Z,63.88
2022-09-13T13:14:53.740Z,64.24
2022-09-13T13:21:10.994Z,64.20
2022-09-13T13:26:50.677Z,64.11
2022-09-13T13:32:21.854Z,63.89
2022-09-13T13:37:50.768Z,63.84
2022-09-13T13:43:33.933Z,63.90
2022-09-13T13:48:43.554Z,63.76
2022-09-13T13:54:36.672Z,63.93
2022-09-13T13:59:44.498Z,63.93
2022-09-13T14:05:15.802Z,64.03
2022-09-13T14:10:28.134Z,63.99
2022-09-13T14:15:54.929Z,63.98
2022-09-13T14:21:05.144Z,64.00
2022-09-13T14:26:25.024Z,63.79
2022-09-13T14:31:41.629Z,63.76
2022-09-13T14:36:59.352Z,63.61
2022-09-13T14:42:27.253Z,63.69
2022-09-13T14:47:56.113Z,63.65
2022-09-13T14:53:09.033Z,63.56
2022-09-13T14:58:38.787Z,63.49
2022-09-13T15:04:00.709Z,63.79
2022-09-13T15:09:30.933Z,63.87
2022-09-13T15:15:22.995Z,63.92
2022-09-13T15:20:50.979Z,64.02
2022-09-13T15:26:25.712Z,64.10
2022-09-13T15:31:47.598Z,64.01
2022-09-13T15:37:19.228Z,64.09
2022-09-13T15:42:38.110Z,64.22
2022-09-13T15:48:06.713Z,64.36
2022-09-13T15:53:14.865Z,64.53
2022-09-13T15:58:38.304Z,64.38
2022-09-13T16:04:06.903Z,64.64
2022-09-13T16:15:51.799Z,64.77
2022-09-13T16:21:42.556Z,64.80
2022-09-13T16:27:14.081Z,64.87
2022-09-13T16:32:42.741Z,64.75
2022-09-13T16:37:52.838Z,64.89
2022-09-13T16:43:05.040Z,65.01
2022-09-13T16:48:24.796Z,64.97
2022-09-13T16:53:58.039Z,65.01
2022-09-13T16:59:17.091Z,65.13
2022-09-13T17:04:37.002Z,65.09
2022-09-13T17:17:48.288Z,65.28
2022-09-13T17:23:48.543Z,65.44
2022-09-13T17:29:31.580Z,65.98
2022-09-13T17:34:50.139Z,66.16
2022-09-13T17:40:20.051Z,66.36
2022-09-13T17:45:48.447Z,66.63
2022-09-13T17:51:18.642Z,66.63
2022-09-13T17:56:52.605Z,66.77
2022-09-13T18:02:11.025Z,67.23
2022-09-13T18:07:44.358Z,67.32
2022-09-13T18:13:01.793Z,67.23
2022-09-13T18:18:30.259Z,67.46
2022-09-13T18:24:02.132Z,67.58
2022-09-13T18:29:42.795Z,67.66
2022-09-13T18:35:08.880Z,67.64
2022-09-13T18:40:38.854Z,67.90
2022-09-13T18:45:58.812Z,67.94
2022-09-13T18:51:13.884Z,68.05
2022-09-13T18:56:38.580Z,68.10
2022-09-13T19:01:52.007Z,67.97
2022-09-13T19:07:12.827Z,67.99
2022-09-13T19:12:31.678Z,68.08
2022-09-13T19:18:23.690Z,68.31
2022-09-13T19:24:00.337Z,68.47
2022-09-13T19:29:30.665Z,68.56
2022-09-13T19:35:08.741Z,68.50
2022-09-13T19:40:41.850Z,68.58
2022-09-13T19:46:14.612Z,68.62
2022-09-13T19:51:52.095Z,68.82
2022-09-13T19:57:14.315Z,69.06
2022-09-13T20:02:23.819Z,69.16
2022-09-13T20:07:47.956Z,69.32
2022-09-13T20:13:04.072Z,69.35
2022-09-13T20:18:20.602Z,69.50
2022-09-13T20:23:29.249Z,69.69
2022-09-13T20:29:16.059Z,69.94
2022-09-13T20:34:51.396Z,70.09
2022-09-13T20:40:37.800Z,70.35
2022-09-13T20:46:16.101Z,70.36
2022-09-13T20:51:46.961Z,70.39
2022-09-13T20:57:05.591Z,70.58
2022-09-13T21:02:26.253Z,70.85
2022-09-13T21:08:04.709Z,71.12
2022-09-13T21:13:20.283Z,71.13
2022-09-13T21:18:32.147Z,71.34
2022-09-13T21:23:40.461Z,71.45
2022-09-13T21:29:07.343Z,71.66
2022-09-13T21:34:30.410Z,71.81
2022-09-13T21:40:23.460Z,71.98
2022-09-13T21:45:40.885Z,71.97
2022-09-13T21:51:05.499Z,72.05
2022-09-13T21:56:51.909Z,72.27
2022-09-13T22:02:21.066Z,72.32
2022-09-13T22:07:50.856Z,72.31
2022-09-13T22:13:09.468Z,72.42
2022-09-13T22:18:19.333Z,72.32
2022-09-13T22:23:39.948Z,72.52
2022-09-13T22:28:59.611Z,72.49
2022-09-13T22:34:22.121Z,72.45
2022-09-13T22:39:39.118Z,72.43
2022-09-13T22:45:08.030Z,72.50
2022-09-13T22:50:24.753Z,72.61
2022-09-13T22:55:51.825Z,72.77
2022-09-13T23:01:21.506Z,72.81
2022-09-13T23:06:49.205Z,72.85
2022-09-13T23:12:16.883Z,72.86
2022-09-13T23:17:31.456Z,72.89
2022-09-13T23:22:58.926Z,72.87
2022-09-13T23:28:26.201Z,73.24
2022-09-13T23:33:56.661Z,73.28
2022-09-13T23:39:10.136Z,73.29
2022-09-13T23:44:37.649Z,73.59
2022-09-13T23:50:05.212Z,73.56
2022-09-13T23:55:32.784Z,73.61
